CST,Max TemperatureF,Mean TemperatureF,Min TemperatureF,Max Dew PointF,MeanDew PointF,Min DewpointF,Max Humidity, Mean Humidity, Min Humidity, Max Sea Level PressureIn, Mean Sea Level PressureIn, Min Sea Level PressureIn, Max VisibilityMiles, Mean VisibilityMiles, Min VisibilityMiles, Max Wind SpeedMPH, Mean Wind SpeedMPH, Max Gust SpeedMPH,PrecipitationIn, CloudCover, Events, WindDirDegrees
2013-2-1,58,49,39,37,33,27,82,56,30,30.43,30.36,30.31,10,10,10,15,5,22,0.00,0,,78
2013-2-2,71,53,35,50,44,31,92,67,41,30.33,30.24,30.16,10,10,9,14,5,18,0.00,2,,202
2013-2-3,70,56,42,48,40,28,100,61,22,30.32,30.23,30.11,10,9,1,10,1,13,0.00,0,,303
2013-2-4,60,53,45,54,47,40,89,75,61,30.09,30.00,29.93,10,10,7,9,4,12,T,3,Rain,109
2013-2-5,66,58,49,59,54,49,100,89,78,30.06,30.00,29.92,10,4,0,8,2,9,0.01,5,Fog,105
2013-2-6,65,56,47,61,55,46,100,89,78,30.11,30.04,29.95,9,4,0,20,5,24,0.29,7,Fog-Rain,112
2013-2-7,67,60,52,59,56,54,100,87,73,29.98,29.93,29.89,10,7,0,7,2,10,0.01,6,Fog,358
2013-2-8,61,54,46,59,53,41,100,86,72,30.21,30.09,29.96,10,9,6,16,7,22,0.00,6,,7
2013-2-9,63,52,41,58,47,39,96,84,72,30.22,30.13,29.98,10,9,6,23,8,31,0.00,7,,94
2013-2-10,73,67,61,70,64,59,100,92,84,29.99,29.88,29.81,10,8,2,32,8,46,1.64,8,Rain-Thunderstorm,192
2013-2-11,62,57,51,61,51,48,100,92,83,30.14,30.08,29.99,10,8,1,16,7,20,0.70,8,Rain-Thunderstorm,32
2013-2-12,56,53,49,56,52,48,100,95,89,30.07,29.88,29.76,10,7,1,21,7,25,0.75,8,Rain-Thunderstorm,52
2013-2-13,56,48,39,49,41,38,96,75,54,30.10,30.03,29.92,10,10,9,20,8,25,0.00,4,,310
2013-2-14,60,46,32,42,37,32,100,72,44,30.17,30.12,30.08,10,6,0,8,1,9,0.00,0,Fog,188
2013-2-15,64,50,36,42,38,33,100,68,36,30.27,30.18,30.11,10,8,1,21,6,26,0.01,2,Rain,342
2013-2-16,53,44,34,33,27,21,79,56,32,30.39,30.31,30.25,10,10,10,24,8,32,0.00,0,,317
2013-2-17,66,49,31,44,36,28,100,70,40,30.31,30.23,30.14,10,8,2,17,8,22,0.00,1,,157
2013-2-18,68,56,44,63,56,41,100,80,59,30.14,29.97,29.88,10,8,3,24,11,32,0.69,7,Rain-Thunderstorm,162
2013-2-19,62,52,42,47,37,30,92,63,33,30.29,30.20,30.02,10,10,10,21,7,28,0.00,0,,17
2013-2-20,57,51,44,34,31,27,62,49,35,30.25,30.12,29.99,10,10,10,20,10,26,T,5,Rain,89
2013-2-21,67,59,51,66,57,33,100,71,41,29.96,29.76,29.64,10,8,2,29,10,36,0.58,8,Rain-Thunderstorm,164
2013-2-22,64,58,51,52,48,46,89,73,56,30.02,29.97,29.90,10,10,2,13,6,15,0.15,6,Rain,10
2013-2-23,64,54,43,47,43,40,92,70,48,30.03,29.97,29.92,10,10,10,12,5,16,0.00,0,,23
2013-2-24,69,54,38,52,42,38,93,64,35,30.02,29.90,29.73,10,10,10,14,6,20,0.00,2,,79
2013-2-25,70,60,49,65,59,32,100,73,46,29.71,29.54,29.40,10,8,2,24,10,30,0.57,7,Rain-Thunderstorm,139
2013-2-26,59,51,43,41,35,32,89,65,40,29.95,29.78,29.61,10,10,10,23,10,33,0.00,4,,277
2013-2-27,67,51,35,43,38,32,100,67,34,30.11,30.00,29.94,10,10,4,21,6,28,0.00,1,,302
2013-2-28,56,46,36,32,30,25,76,54,32,30.22,30.15,30.09,10,10,8,18,9,22,0.00,0,,309